createdAt,value
2022-12-26T00:00:39.940Z,1.13
2022-12-26T00:05:41.555Z,1.63
2022-12-26T00:10:43.105Z,1.10
2022-12-26T00:15:44.855Z,1.40
2022-12-26T00:20:46.603Z,1.20
2022-12-26T00:25:48.224Z,1.40
2022-12-26T00:30:49.771Z,1.47
2022-12-26T00:35:51.413Z,1.37
2022-12-26T00:40:52.925Z,1.37
2022-12-26T00:45:54.571Z,1.57
2022-12-26T00:50:56.422Z,1.50
2022-12-26T00:55:58.027Z,1.43
2022-12-26T01:01:09.067Z,1.70
2022-12-26T01:06:11.072Z,1.60
2022-12-26T01:11:15.205Z,1.50
2022-12-26T01:16:19.564Z,1.67
2022-12-26T01:21:21.132Z,1.50
2022-12-26T01:26:22.824Z,1.80
2022-12-26T01:31:24.589Z,1.80
2022-12-26T01:36:26.314Z,1.60
2022-12-26T01:41:28.030Z,1.60
2022-12-26T01:46:39.849Z,1.70
2022-12-26T01:51:45.287Z,1.83
2022-12-26T01:56:47.121Z,1.67
2022-12-26T02:01:50.505Z,1.50
2022-12-26T02:06:52.402Z,1.77
2022-12-26T02:12:35.509Z,1.57
2022-12-26T02:17:20.565Z,1.40
2022-12-26T02:22:59.895Z,1.50
2022-12-26T02:28:19.532Z,1.63
2022-12-26T02:33:32.335Z,1.43
2022-12-26T02:38:46.163Z,1.60
2022-12-26T02:44:46.338Z,1.47
2022-12-26T02:50:28.864Z,1.60
2022-12-26T02:55:50.498Z,1.60
2022-12-26T03:01:16.826Z,1.50
2022-12-26T03:06:41.146Z,1.57
2022-12-26T03:12:04.514Z,1.80
2022-12-26T03:17:20.217Z,1.83
2022-12-26T03:22:30.886Z,1.60
2022-12-26T03:27:34.104Z,1.60
2022-12-26T03:32:43.937Z,1.93
2022-12-26T03:37:51.456Z,1.50
2022-12-26T03:43:22.292Z,1.80
2022-12-26T03:48:50.143Z,2.03
2022-12-26T03:54:20.349Z,1.70
2022-12-26T03:59:49.407Z,1.50
2022-12-26T04:05:11.255Z,1.47
2022-12-26T04:10:49.857Z,1.63
2022-12-26T04:16:14.112Z,1.53
2022-12-26T04:21:44.831Z,1.60
2022-12-26T04:27:07.142Z,1.33
2022-12-26T04:32:35.804Z,1.33
2022-12-26T04:37:59.938Z,1.60
2022-12-26T04:43:49.942Z,1.47
2022-12-26T04:49:03.509Z,1.40
2022-12-26T04:54:05.776Z,1.43
2022-12-26T04:59:07.392Z,1.70
2022-12-26T05:04:32.500Z,1.30
2022-12-26T05:09:35.458Z,1.53
2022-12-26T05:14:37.077Z,1.23
2022-12-26T05:19:57.347Z,1.47
2022-12-26T05:25:17.417Z,1.50
2022-12-26T05:30:19.076Z,1.37
2022-12-26T05:35:20.618Z,1.83
2022-12-26T05:40:22.123Z,1.50
2022-12-26T05:45:23.938Z,1.70
2022-12-26T05:50:25.552Z,1.40
2022-12-26T05:55:27.237Z,1.30
2022-12-26T06:00:29.990Z,1.30
2022-12-26T06:05:31.643Z,1.40
2022-12-26T06:10:33.195Z,1.60
2022-12-26T06:15:34.781Z,1.40
2022-12-26T06:20:39.387Z,1.40
2022-12-26T06:25:41.254Z,1.20
2022-12-26T06:30:42.958Z,1.70
2022-12-26T06:35:44.775Z,1.50
2022-12-26T06:40:46.315Z,1.40
2022-12-26T06:45:58.382Z,1.33
2022-12-26T06:51:04.617Z,1.00
2022-12-26T06:56:14.148Z,0.93
2022-12-26T07:01:18.020Z,0.70
2022-12-26T07:06:27.377Z,0.60
2022-12-26T07:11:32.332Z,0.70
2022-12-26T07:16:39.879Z,0.73
2022-12-26T07:21:42.646Z,0.63
2022-12-26T07:26:45.262Z,0.80
2022-12-26T07:31:47.023Z,0.80
2022-12-26T07:36:48.593Z,0.70
2022-12-26T07:41:59.087Z,0.87
2022-12-26T07:47:01.031Z,0.80
2022-12-26T07:52:03.181Z,0.80
2022-12-26T07:57:37.970Z,1.00
2022-12-26T08:02:26.483Z,1.30
2022-12-26T08:07:28.339Z,1.50
2022-12-26T08:12:32.573Z,1.00
2022-12-26T08:17:34.175Z,1.30
2022-12-26T08:22:35.790Z,1.30
2022-12-26T08:27:37.523Z,1.20
2022-12-26T08:32:42.436Z,1.30
2022-12-26T08:37:47.263Z,1.50
2022-12-26T08:43:03.383Z,1.67
2022-12-26T08:48:10.264Z,1.67
2022-12-26T08:53:11.795Z,1.50
2022-12-26T08:58:13.348Z,1.60
2022-12-26T09:03:15.861Z,1.60
2022-12-26T09:08:17.475Z,1.50
2022-12-26T09:13:20.207Z,1.30
2022-12-26T09:18:21.703Z,1.50
2022-12-26T09:23:24.269Z,1.43
2022-12-26T09:28:25.942Z,1.60
2022-12-26T09:33:27.828Z,1.57
2022-12-26T09:38:30.661Z,1.57
2022-12-26T09:43:58.453Z,1.60
2022-12-26T09:49:30.935Z,1.90
2022-12-26T09:54:40.129Z,1.60
2022-12-26T09:59:48.948Z,1.60
2022-12-26T10:04:51.054Z,1.97
2022-12-26T10:10:18.927Z,2.37
2022-12-26T10:15:41.154Z,2.60
2022-12-26T10:21:01.375Z,2.60
2022-12-26T10:26:11.510Z,2.97
2022-12-26T10:31:24.745Z,1.97
2022-12-26T10:36:35.289Z,1.60
2022-12-26T10:41:43.069Z,1.70
2022-12-26T10:47:02.807Z,1.40
2022-12-26T10:52:04.405Z,1.00
2022-12-26T10:57:08.268Z,0.87
2022-12-26T11:02:30.854Z,0.83
2022-12-26T11:07:36.380Z,1.00
2022-12-26T11:12:41.959Z,1.10
2022-12-26T11:17:45.683Z,1.27
2022-12-26T11:22:47.444Z,1.10
2022-12-26T11:27:56.853Z,1.10
2022-12-26T11:33:13.687Z,0.90
2022-12-26T11:38:40.630Z,0.90
2022-12-26T11:43:46.429Z,0.80
2022-12-26T11:48:50.243Z,0.90
2022-12-26T11:54:18.767Z,1.20
2022-12-26T11:59:22.210Z,0.93
2022-12-26T12:04:23.749Z,0.80
2022-12-26T12:10:06.639Z,0.80
2022-12-26T12:15:20.826Z,0.57
2022-12-26T12:20:58.015Z,1.30
2022-12-26T12:26:00.859Z,0.93
2022-12-26T12:31:17.628Z,0.80
2022-12-26T12:36:51.486Z,1.20
2022-12-26T12:42:03.916Z,0.70
2022-12-26T12:47:15.626Z,0.90
2022-12-26T12:52:41.991Z,1.00
2022-12-26T12:57:51.299Z,0.80
2022-12-26T13:03:03.072Z,0.60
2022-12-26T13:08:19.996Z,0.83
2022-12-26T13:13:32.928Z,0.97
2022-12-26T13:18:38.658Z,1.00
2022-12-26T13:24:03.612Z,1.10
2022-12-26T13:29:40.496Z,1.17
2022-12-26T13:34:44.407Z,0.73
2022-12-26T13:39:46.092Z,0.90
2022-12-26T13:44:53.341Z,0.77
2022-12-26T13:49:55.373Z,1.03
2022-12-26T13:54:57.343Z,1.13
2022-12-26T14:00:13.293Z,1.10
2022-12-26T14:05:25.088Z,0.80
2022-12-26T14:10:42.647Z,1.07
2022-12-26T14:15:55.494Z,0.93
2022-12-26T14:21:18.598Z,0.50
2022-12-26T14:26:44.009Z,0.50
2022-12-26T14:31:55.545Z,0.87
2022-12-26T14:37:04.253Z,1.00
2022-12-26T14:42:27.698Z,1.20
2022-12-26T14:47:40.641Z,1.30
2022-12-26T14:52:43.309Z,0.93
2022-12-26T14:57:47.637Z,1.07
2022-12-26T15:03:01.643Z,1.20
2022-12-26T15:08:22.614Z,1.23
2022-12-26T15:13:42.911Z,1.50
2022-12-26T15:19:16.894Z,1.30
2022-12-26T15:24:21.124Z,1.30
2022-12-26T15:29:31.413Z,1.90
2022-12-26T15:34:56.106Z,1.70
2022-12-26T15:40:25.160Z,1.70
2022-12-26T15:45:29.545Z,1.70
2022-12-26T15:50:43.163Z,1.70
2022-12-26T15:55:53.759Z,2.20
2022-12-26T16:00:55.558Z,1.80
2022-12-26T16:06:13.200Z,1.80
2022-12-26T16:11:14.893Z,1.90
2022-12-26T16:16:32.526Z,1.77
2022-12-26T16:21:53.264Z,1.80
2022-12-26T16:26:55.282Z,1.60
2022-12-26T16:32:06.828Z,1.60
2022-12-26T16:37:11.175Z,1.53
2022-12-26T16:42:33.045Z,1.63
2022-12-26T16:47:34.889Z,1.90
2022-12-26T16:52:45.992Z,2.23
2022-12-26T16:57:49.785Z,2.87
2022-12-26T17:02:55.326Z,2.90
2022-12-26T17:07:59.565Z,2.73
2022-12-26T17:13:03.921Z,2.83
2022-12-26T17:18:39.914Z,3.30
2022-12-26T17:23:42.120Z,2.90
2022-12-26T17:28:43.641Z,3.00
2022-12-26T17:33:48.123Z,3.50
2022-12-26T17:38:49.862Z,3.40
2022-12-26T17:43:52.509Z,4.00
2022-12-26T17:48:54.268Z,3.70
2022-12-26T17:53:55.773Z,4.30
2022-12-26T17:58:57.302Z,4.33
2022-12-26T18:03:58.905Z,2.87
2022-12-26T18:09:00.458Z,2.40
2022-12-26T18:14:03.104Z,2.00
2022-12-26T18:19:04.636Z,2.00
2022-12-26T18:24:06.490Z,2.83
2022-12-26T18:29:09.707Z,2.70
2022-12-26T18:34:11.500Z,2.93
2022-12-26T18:39:15.369Z,3.03
2022-12-26T18:44:19.189Z,3.10
2022-12-26T18:49:20.913Z,3.13
2022-12-26T18:54:22.448Z,3.00
2022-12-26T18:59:23.981Z,2.80
2022-12-26T19:04:25.608Z,3.20
2022-12-26T19:09:27.165Z,3.07
2022-12-26T19:14:28.744Z,2.93
2022-12-26T19:19:31.609Z,2.73
2022-12-26T19:24:34.155Z,3.07
2022-12-26T19:29:35.927Z,2.73
2022-12-26T19:34:38.479Z,2.50
2022-12-26T19:39:39.986Z,3.03
2022-12-26T19:44:41.590Z,2.80
2022-12-26T19:49:43.567Z,3.43
2022-12-26T19:54:46.532Z,3.23
2022-12-26T19:59:48.171Z,3.70
2022-12-26T20:04:49.815Z,2.77
2022-12-26T20:09:51.459Z,3.20
2022-12-26T20:14:53.074Z,2.93
2022-12-26T20:19:54.612Z,2.80
2022-12-26T20:24:56.245Z,4.10
2022-12-26T20:29:57.933Z,3.13
2022-12-26T20:34:59.584Z,3.47
2022-12-26T20:40:02.427Z,3.00
2022-12-26T20:45:05.443Z,3.10
2022-12-26T20:50:07.761Z,3.00
2022-12-26T20:55:09.497Z,3.00
2022-12-26T21:00:11.688Z,3.13
2022-12-26T21:05:13.282Z,2.73
2022-12-26T21:10:15.047Z,2.90
2022-12-26T21:15:16.667Z,2.90
2022-12-26T21:20:18.198Z,2.30
2022-12-26T21:25:20.297Z,2.80
2022-12-26T21:30:21.986Z,2.30
2022-12-26T21:35:23.510Z,2.50
2022-12-26T21:40:27.486Z,2.23
2022-12-26T21:45:29.307Z,2.07
2022-12-26T21:50:30.805Z,2.00
2022-12-26T21:55:36.368Z,2.40
2022-12-26T22:00:37.993Z,2.80
2022-12-26T22:05:42.392Z,2.10
2022-12-26T22:11:05.320Z,2.47
2022-12-26T22:16:09.722Z,2.30
2022-12-26T22:21:19.979Z,2.10
2022-12-26T22:26:23.075Z,2.03
2022-12-26T22:31:24.679Z,2.30
2022-12-26T22:36:27.578Z,2.13
2022-12-26T22:41:29.225Z,2.20
2022-12-26T22:46:30.883Z,1.93
2022-12-26T22:51:32.464Z,2.60
2022-12-26T22:56:34.116Z,2.00
2022-12-26T23:01:35.730Z,2.13
2022-12-26T23:06:38.004Z,2.00
2022-12-26T23:11:39.712Z,2.10
2022-12-26T23:16:45.730Z,2.13
2022-12-26T23:21:50.293Z,1.80
2022-12-26T23:26:54.781Z,2.00
2022-12-26T23:31:56.529Z,2.27
2022-12-26T23:36:58.318Z,1.90
2022-12-26T23:41:59.893Z,2.17
2022-12-26T23:47:01.588Z,1.90
2022-12-26T23:52:03.349Z,2.20
2022-12-26T23:57:04.946Z,2.10
